Darden, Tennessee
Current Conditions -  °F | °C
As of 2:35 PM on Friday 21 Nov 2014 (Local Time) from KPVE Reporting Station
Overcast Overcast  
Wind Chill: 12°   Ceiling: 5500
Heat Index: 12°   Visibility: 10mi
Dew Point: -2°   Wind: 3mph
Humidity: 38%   Direction: 60°ENE
Pressure: 30.31"   Gusts: NA
Location:  35.64°N, 88.22°W
Report Text: KPVE 212035Z AUTO 06003KT 10SM OVC055 12/M02 A3031 RMK
Loading
Personal Weather Stations






























Interactive Weather Map New forecast layout! Learn more

10-Day Weather Forecast

Advertisements
Track Severe Weather on mobile